sensor_id;sensor_type;location;lat;lon;timestamp;P1;durP1;ratioP1;P2;durP2;ratioP2
21202;SDS011;10759;51.982;9.232;2022-07-06T00:01:06;2.50;;;1.00;;
21202;SDS011;10759;51.982;9.232;2022-07-06T00:03:34;1.33;;;1.00;;
21202;SDS011;10759;51.982;9.232;2022-07-06T00:06:03;1.73;;;1.00;;
21202;SDS011;10759;51.982;9.232;2022-07-06T00:08:32;2.35;;;1.48;;
21202;SDS011;10759;51.982;9.232;2022-07-06T00:11:00;3.47;;;1.40;;
21202;SDS011;10759;51.982;9.232;2022-07-06T00:13:28;3.00;;;1.95;;
21202;SDS011;10759;51.982;9.232;2022-07-06T00:15:57;1.70;;;1.27;;
21202;SDS011;10759;51.982;9.232;2022-07-06T00:18:25;1.90;;;1.25;;
21202;SDS011;10759;51.982;9.232;2022-07-06T00:20:53;5.13;;;1.60;;
21202;SDS011;10759;51.982;9.232;2022-07-06T00:23:23;3.63;;;1.27;;
21202;SDS011;10759;51.982;9.232;2022-07-06T00:25:51;2.47;;;1.30;;
21202;SDS011;10759;51.982;9.232;2022-07-06T00:28:19;2.75;;;1.20;;
21202;SDS011;10759;51.982;9.232;2022-07-06T00:30:47;1.35;;;1.10;;
21202;SDS011;10759;51.982;9.232;2022-07-06T00:33:16;2.33;;;1.70;;
21202;SDS011;10759;51.982;9.232;2022-07-06T00:35:44;4.25;;;1.33;;
21202;SDS011;10759;51.982;9.232;2022-07-06T00:38:12;4.38;;;1.40;;
21202;SDS011;10759;51.982;9.232;2022-07-06T00:40:41;3.20;;;1.60;;
21202;SDS011;10759;51.982;9.232;2022-07-06T00:43:09;2.90;;;1.40;;
21202;SDS011;10759;51.982;9.232;2022-07-06T00:45:38;2.65;;;1.08;;
21202;SDS011;10759;51.982;9.232;2022-07-06T00:48:06;2.40;;;1.33;;
21202;SDS011;10759;51.982;9.232;2022-07-06T00:50:34;3.15;;;1.60;;
21202;SDS011;10759;51.982;9.232;2022-07-06T00:53:04;2.80;;;0.98;;
21202;SDS011;10759;51.982;9.232;2022-07-06T00:55:34;2.08;;;1.33;;
21202;SDS011;10759;51.982;9.232;2022-07-06T00:58:07;2.83;;;1.33;;
21202;SDS011;10759;51.982;9.232;2022-07-06T01:00:37;3.00;;;1.27;;
21202;SDS011;10759;51.982;9.232;2022-07-06T01:03:11;1.45;;;1.13;;
21202;SDS011;10759;51.982;9.232;2022-07-06T01:05:39;1.60;;;1.40;;
21202;SDS011;10759;51.982;9.232;2022-07-06T01:08:07;4.25;;;1.25;;
21202;SDS011;10759;51.982;9.232;2022-07-06T01:10:35;2.75;;;1.20;;
21202;SDS011;10759;51.982;9.232;2022-07-06T01:13:03;2.03;;;1.38;;
21202;SDS011;10759;51.982;9.232;2022-07-06T01:15:33;3.45;;;1.20;;
21202;SDS011;10759;51.982;9.232;2022-07-06T01:18:02;2.90;;;1.35;;
21202;SDS011;10759;51.982;9.232;2022-07-06T01:20:32;2.33;;;1.38;;
21202;SDS011;10759;51.982;9.232;2022-07-06T01:23:01;4.15;;;1.20;;
21202;SDS011;10759;51.982;9.232;2022-07-06T01:25:29;5.22;;;1.50;;
21202;SDS011;10759;51.982;9.232;2022-07-06T01:27:57;2.72;;;1.20;;
21202;SDS011;10759;51.982;9.232;2022-07-06T01:30:25;2.42;;;1.20;;
21202;SDS011;10759;51.982;9.232;2022-07-06T01:32:53;4.15;;;1.30;;
21202;SDS011;10759;51.982;9.232;2022-07-06T01:35:21;1.45;;;1.10;;
21202;SDS011;10759;51.982;9.232;2022-07-06T01:37:53;2.35;;;1.15;;
21202;SDS011;10759;51.982;9.232;2022-07-06T01:40:21;2.20;;;1.20;;
21202;SDS011;10759;51.982;9.232;2022-07-06T01:42:49;3.10;;;1.27;;
21202;SDS011;10759;51.982;9.232;2022-07-06T01:45:18;4.25;;;1.40;;
21202;SDS011;10759;51.982;9.232;2022-07-06T01:47:46;2.50;;;1.35;;
21202;SDS011;10759;51.982;9.232;2022-07-06T01:50:16;3.45;;;1.15;;
21202;SDS011;10759;51.982;9.232;2022-07-06T01:52:45;2.40;;;1.48;;
21202;SDS011;10759;51.982;9.232;2022-07-06T01:55:15;3.42;;;1.30;;
21202;SDS011;10759;51.982;9.232;2022-07-06T01:57:43;2.90;;;1.10;;
21202;SDS011;10759;51.982;9.232;2022-07-06T02:00:12;1.92;;;1.08;;
21202;SDS011;10759;51.982;9.232;2022-07-06T02:02:47;3.67;;;1.50;;
21202;SDS011;10759;51.982;9.232;2022-07-06T02:05:15;3.55;;;1.10;;
21202;SDS011;10759;51.982;9.232;2022-07-06T02:07:43;1.65;;;1.38;;
21202;SDS011;10759;51.982;9.232;2022-07-06T02:10:12;3.63;;;1.67;;
21202;SDS011;10759;51.982;9.232;2022-07-06T02:12:43;3.28;;;1.90;;
21202;SDS011;10759;51.982;9.232;2022-07-06T02:15:11;2.75;;;1.40;;
21202;SDS011;10759;51.982;9.232;2022-07-06T02:17:40;2.08;;;1.30;;
21202;SDS011;10759;51.982;9.232;2022-07-06T02:20:08;1.50;;;1.20;;
21202;SDS011;10759;51.982;9.232;2022-07-06T02:22:37;3.15;;;1.48;;
21202;SDS011;10759;51.982;9.232;2022-07-06T02:25:06;3.25;;;1.38;;
21202;SDS011;10759;51.982;9.232;2022-07-06T02:27:36;2.25;;;1.30;;
21202;SDS011;10759;51.982;9.232;2022-07-06T02:30:09;2.85;;;1.48;;
21202;SDS011;10759;51.982;9.232;2022-07-06T02:32:38;2.55;;;1.45;;
21202;SDS011;10759;51.982;9.232;2022-07-06T02:35:07;4.10;;;1.48;;
21202;SDS011;10759;51.982;9.232;2022-07-06T02:37:35;1.80;;;1.30;;
21202;SDS011;10759;51.982;9.232;2022-07-06T02:40:04;1.73;;;1.20;;
21202;SDS011;10759;51.982;9.232;2022-07-06T02:42:35;3.63;;;2.92;;
21202;SDS011;10759;51.982;9.232;2022-07-06T02:45:14;3.65;;;1.50;;
21202;SDS011;10759;51.982;9.232;2022-07-06T02:47:45;2.08;;;1.40;;
21202;SDS011;10759;51.982;9.232;2022-07-06T02:50:18;3.42;;;1.38;;
21202;SDS011;10759;51.982;9.232;2022-07-06T02:52:52;2.17;;;1.30;;
21202;SDS011;10759;51.982;9.232;2022-07-06T02:55:22;2.92;;;1.20;;
21202;SDS011;10759;51.982;9.232;2022-07-06T02:57:50;2.40;;;1.30;;
21202;SDS011;10759;51.982;9.232;2022-07-06T03:00:23;2.65;;;1.17;;
21202;SDS011;10759;51.982;9.232;2022-07-06T03:03:01;2.47;;;1.70;;
21202;SDS011;10759;51.982;9.232;2022-07-06T03:05:33;4.32;;;1.40;;
21202;SDS011;10759;51.982;9.232;2022-07-06T03:08:02;1.42;;;1.20;;
21202;SDS011;10759;51.982;9.232;2022-07-06T03:10:30;2.55;;;1.55;;
21202;SDS011;10759;51.982;9.232;2022-07-06T03:12:58;3.40;;;1.45;;
21202;SDS011;10759;51.982;9.232;2022-07-06T03:15:28;1.85;;;1.15;;
21202;SDS011;10759;51.982;9.232;2022-07-06T03:17:57;1.27;;;1.17;;
21202;SDS011;10759;51.982;9.232;2022-07-06T03:20:26;2.92;;;1.55;;
21202;SDS011;10759;51.982;9.232;2022-07-06T03:22:54;2.30;;;1.63;;
21202;SDS011;10759;51.982;9.232;2022-07-06T03:25:23;3.30;;;2.55;;
21202;SDS011;10759;51.982;9.232;2022-07-06T03:27:51;4.35;;;2.80;;
21202;SDS011;10759;51.982;9.232;2022-07-06T03:30:20;3.15;;;1.80;;
21202;SDS011;10759;51.982;9.232;2022-07-06T03:32:54;2.28;;;1.60;;
21202;SDS011;10759;51.982;9.232;2022-07-06T03:35:23;3.08;;;1.50;;
21202;SDS011;10759;51.982;9.232;2022-07-06T03:37:54;2.88;;;1.52;;
21202;SDS011;10759;51.982;9.232;2022-07-06T03:40:25;2.67;;;2.03;;
21202;SDS011;10759;51.982;9.232;2022-07-06T03:42:54;1.88;;;1.60;;
21202;SDS011;10759;51.982;9.232;2022-07-06T03:45:24;2.53;;;1.83;;
21202;SDS011;10759;51.982;9.232;2022-07-06T03:47:54;4.85;;;1.95;;
21202;SDS011;10759;51.982;9.232;2022-07-06T03:50:23;4.13;;;1.63;;
21202;SDS011;10759;51.982;9.232;2022-07-06T03:52:52;3.30;;;1.88;;
21202;SDS011;10759;51.982;9.232;2022-07-06T03:55:20;4.50;;;1.77;;
21202;SDS011;10759;51.982;9.232;2022-07-06T03:57:55;2.92;;;1.73;;
21202;SDS011;10759;51.982;9.232;2022-07-06T04:00:31;3.10;;;1.40;;
21202;SDS011;10759;51.982;9.232;2022-07-06T04:03:05;2.80;;;1.40;;
21202;SDS011;10759;51.982;9.232;2022-07-06T04:05:40;2.97;;;1.33;;
21202;SDS011;10759;51.982;9.232;2022-07-06T04:08:08;4.60;;;1.67;;
21202;SDS011;10759;51.982;9.232;2022-07-06T04:10:45;3.58;;;1.80;;
21202;SDS011;10759;51.982;9.232;2022-07-06T04:13:13;4.95;;;1.95;;
21202;SDS011;10759;51.982;9.232;2022-07-06T04:15:41;3.17;;;1.52;;
21202;SDS011;10759;51.982;9.232;2022-07-06T04:18:11;2.67;;;1.55;;
21202;SDS011;10759;51.982;9.232;2022-07-06T04:20:46;4.72;;;1.58;;
21202;SDS011;10759;51.982;9.232;2022-07-06T04:23:14;4.05;;;1.75;;
21202;SDS011;10759;51.982;9.232;2022-07-06T04:25:42;2.35;;;1.50;;
21202;SDS011;10759;51.982;9.232;2022-07-06T04:28:11;1.73;;;1.23;;
21202;SDS011;10759;51.982;9.232;2022-07-06T04:30:39;2.75;;;2.03;;
21202;SDS011;10759;51.982;9.232;2022-07-06T04:33:13;2.20;;;1.38;;
21202;SDS011;10759;51.982;9.232;2022-07-06T04:35:44;2.35;;;1.60;;
21202;SDS011;10759;51.982;9.232;2022-07-06T04:38:12;5.32;;;2.13;;
21202;SDS011;10759;51.982;9.232;2022-07-06T04:40:41;3.03;;;1.80;;
21202;SDS011;10759;51.982;9.232;2022-07-06T04:43:15;3.22;;;1.63;;
21202;SDS011;10759;51.982;9.232;2022-07-06T04:45:43;4.20;;;2.13;;
21202;SDS011;10759;51.982;9.232;2022-07-06T04:48:11;5.70;;;2.30;;
21202;SDS011;10759;51.982;9.232;2022-07-06T04:50:41;3.70;;;1.77;;
21202;SDS011;10759;51.982;9.232;2022-07-06T04:53:15;4.57;;;2.13;;
21202;SDS011;10759;51.982;9.232;2022-07-06T04:55:43;2.67;;;1.80;;
21202;SDS011;10759;51.982;9.232;2022-07-06T04:58:11;4.20;;;1.70;;
21202;SDS011;10759;51.982;9.232;2022-07-06T05:00:40;2.50;;;1.63;;
21202;SDS011;10759;51.982;9.232;2022-07-06T05:03:09;1.40;;;1.30;;
21202;SDS011;10759;51.982;9.232;2022-07-06T05:05:38;5.55;;;2.10;;
21202;SDS011;10759;51.982;9.232;2022-07-06T05:08:06;3.53;;;2.20;;
21202;SDS011;10759;51.982;9.232;2022-07-06T05:10:34;4.38;;;1.75;;
21202;SDS011;10759;51.982;9.232;2022-07-06T05:13:03;4.13;;;2.10;;
21202;SDS011;10759;51.982;9.232;2022-07-06T05:15:31;4.10;;;1.77;;
21202;SDS011;10759;51.982;9.232;2022-07-06T05:18:00;2.35;;;1.65;;
21202;SDS011;10759;51.982;9.232;2022-07-06T05:20:28;3.17;;;1.90;;
21202;SDS011;10759;51.982;9.232;2022-07-06T05:22:58;7.82;;;2.13;;
21202;SDS011;10759;51.982;9.232;2022-07-06T05:25:29;2.97;;;1.75;;
21202;SDS011;10759;51.982;9.232;2022-07-06T05:28:00;4.70;;;1.80;;
21202;SDS011;10759;51.982;9.232;2022-07-06T05:30:28;4.78;;;1.70;;
21202;SDS011;10759;51.982;9.232;2022-07-06T05:32:57;2.47;;;1.70;;
21202;SDS011;10759;51.982;9.232;2022-07-06T05:35:25;4.25;;;1.50;;
21202;SDS011;10759;51.982;9.232;2022-07-06T05:38:14;3.97;;;1.63;;
21202;SDS011;10759;51.982;9.232;2022-07-06T05:40:42;3.20;;;1.83;;
21202;SDS011;10759;51.982;9.232;2022-07-06T11:26:31;1.60;;;0.88;;
21202;SDS011;10759;51.982;9.232;2022-07-06T11:29:08;2.92;;;0.88;;
21202;SDS011;10759;51.982;9.232;2022-07-06T11:31:47;2.28;;;0.80;;
21202;SDS011;10759;51.982;9.232;2022-07-06T11:34:22;2.92;;;0.98;;
21202;SDS011;10759;51.982;9.232;2022-07-06T11:39:35;2.22;;;1.10;;
21202;SDS011;10759;51.982;9.232;2022-07-06T11:45:25;2.53;;;0.90;;
21202;SDS011;10759;51.982;9.232;2022-07-06T11:48:08;4.72;;;1.35;;
21202;SDS011;10759;51.982;9.232;2022-07-06T11:50:37;1.35;;;0.75;;
21202;SDS011;10759;51.982;9.232;2022-07-06T11:53:09;2.63;;;0.95;;
21202;SDS011;10759;51.982;9.232;2022-07-06T11:55:38;3.38;;;1.33;;
21202;SDS011;10759;51.982;9.232;2022-07-06T11:58:12;4.15;;;1.10;;
21202;SDS011;10759;51.982;9.232;2022-07-06T12:00:44;3.50;;;1.00;;
21202;SDS011;10759;51.982;9.232;2022-07-06T12:03:30;1.42;;;0.85;;
21202;SDS011;10759;51.982;9.232;2022-07-06T12:05:59;1.87;;;0.90;;
21202;SDS011;10759;51.982;9.232;2022-07-06T12:08:30;2.45;;;0.93;;
21202;SDS011;10759;51.982;9.232;2022-07-06T12:11:16;1.52;;;0.80;;
21202;SDS011;10759;51.982;9.232;2022-07-06T12:13:49;3.47;;;1.00;;
21202;SDS011;10759;51.982;9.232;2022-07-06T12:16:19;4.25;;;1.13;;
21202;SDS011;10759;51.982;9.232;2022-07-06T12:18:52;2.28;;;0.80;;
21202;SDS011;10759;51.982;9.232;2022-07-06T12:21:20;2.83;;;0.90;;
21202;SDS011;10759;51.982;9.232;2022-07-06T12:23:52;2.80;;;0.75;;
21202;SDS011;10759;51.982;9.232;2022-07-06T12:26:26;2.45;;;0.90;;
21202;SDS011;10759;51.982;9.232;2022-07-06T12:29:00;2.67;;;0.68;;
21202;SDS011;10759;51.982;9.232;2022-07-06T12:31:33;3.08;;;1.30;;
21202;SDS011;10759;51.982;9.232;2022-07-06T12:34:05;3.00;;;0.90;;
21202;SDS011;10759;51.982;9.232;2022-07-06T12:36:44;2.90;;;0.77;;
21202;SDS011;10759;51.982;9.232;2022-07-06T12:39:16;3.90;;;2.05;;
21202;SDS011;10759;51.982;9.232;2022-07-06T12:41:46;2.03;;;0.70;;
21202;SDS011;10759;51.982;9.232;2022-07-06T12:44:17;0.95;;;0.70;;
21202;SDS011;10759;51.982;9.232;2022-07-06T12:47:01;3.95;;;0.82;;
21202;SDS011;10759;51.982;9.232;2022-07-06T12:49:31;1.50;;;0.70;;
21202;SDS011;10759;51.982;9.232;2022-07-06T12:52:02;2.60;;;0.85;;
21202;SDS011;10759;51.982;9.232;2022-07-06T12:54:46;3.33;;;0.70;;
21202;SDS011;10759;51.982;9.232;2022-07-06T12:57:25;1.80;;;0.80;;
21202;SDS011;10759;51.982;9.232;2022-07-06T12:59:58;5.38;;;0.85;;
21202;SDS011;10759;51.982;9.232;2022-07-06T13:02:29;1.55;;;0.70;;
21202;SDS011;10759;51.982;9.232;2022-07-06T13:07:54;2.92;;;0.88;;
21202;SDS011;10759;51.982;9.232;2022-07-06T13:10:23;2.88;;;0.82;;
21202;SDS011;10759;51.982;9.232;2022-07-06T13:12:52;6.90;;;0.93;;
21202;SDS011;10759;51.982;9.232;2022-07-06T13:15:22;4.78;;;1.00;;
21202;SDS011;10759;51.982;9.232;2022-07-06T13:17:50;2.55;;;0.90;;
21202;SDS011;10759;51.982;9.232;2022-07-06T13:20:18;2.25;;;0.95;;
21202;SDS011;10759;51.982;9.232;2022-07-06T13:22:46;1.63;;;0.93;;
21202;SDS011;10759;51.982;9.232;2022-07-06T13:25:14;1.58;;;1.10;;
21202;SDS011;10759;51.982;9.232;2022-07-06T13:27:42;3.67;;;1.10;;
21202;SDS011;10759;51.982;9.232;2022-07-06T13:30:10;2.97;;;1.02;;
21202;SDS011;10759;51.982;9.232;2022-07-06T13:32:41;4.47;;;1.10;;
21202;SDS011;10759;51.982;9.232;2022-07-06T13:35:09;2.90;;;1.00;;
21202;SDS011;10759;51.982;9.232;2022-07-06T13:37:37;3.50;;;1.33;;
21202;SDS011;10759;51.982;9.232;2022-07-06T13:40:05;2.22;;;1.02;;
21202;SDS011;10759;51.982;9.232;2022-07-06T13:42:34;4.05;;;1.23;;
21202;SDS011;10759;51.982;9.232;2022-07-06T13:45:02;3.17;;;1.00;;
21202;SDS011;10759;51.982;9.232;2022-07-06T13:47:31;2.80;;;0.82;;
21202;SDS011;10759;51.982;9.232;2022-07-06T13:50:00;1.48;;;0.82;;
21202;SDS011;10759;51.982;9.232;2022-07-06T13:52:29;2.03;;;0.70;;
21202;SDS011;10759;51.982;9.232;2022-07-06T13:54:57;3.88;;;0.90;;
21202;SDS011;10759;51.982;9.232;2022-07-06T13:57:28;1.70;;;0.80;;
21202;SDS011;10759;51.982;9.232;2022-07-06T13:59:56;1.65;;;0.75;;
21202;SDS011;10759;51.982;9.232;2022-07-06T14:02:24;2.17;;;1.17;;
21202;SDS011;10759;51.982;9.232;2022-07-06T14:04:52;1.33;;;0.77;;
21202;SDS011;10759;51.982;9.232;2022-07-06T14:07:22;2.28;;;0.95;;
21202;SDS011;10759;51.982;9.232;2022-07-06T14:09:50;1.77;;;0.50;;
21202;SDS011;10759;51.982;9.232;2022-07-06T14:12:19;3.70;;;0.80;;
21202;SDS011;10759;51.982;9.232;2022-07-06T14:14:48;3.92;;;0.73;;
21202;SDS011;10759;51.982;9.232;2022-07-06T14:17:17;2.30;;;0.88;;
21202;SDS011;10759;51.982;9.232;2022-07-06T14:19:45;1.45;;;0.93;;
21202;SDS011;10759;51.982;9.232;2022-07-06T14:22:13;2.08;;;0.77;;
21202;SDS011;10759;51.982;9.232;2022-07-06T14:24:43;15.30;;;1.20;;
21202;SDS011;10759;51.982;9.232;2022-07-06T14:27:11;3.05;;;0.77;;
21202;SDS011;10759;51.982;9.232;2022-07-06T14:29:39;2.95;;;0.93;;
21202;SDS011;10759;51.982;9.232;2022-07-06T14:32:07;3.03;;;0.70;;
21202;SDS011;10759;51.982;9.232;2022-07-06T14:34:36;2.25;;;1.30;;
21202;SDS011;10759;51.982;9.232;2022-07-06T14:37:04;3.17;;;0.70;;
21202;SDS011;10759;51.982;9.232;2022-07-06T14:39:32;2.40;;;0.68;;
21202;SDS011;10759;51.982;9.232;2022-07-06T14:42:02;2.10;;;0.63;;
21202;SDS011;10759;51.982;9.232;2022-07-06T14:44:30;1.33;;;0.85;;
21202;SDS011;10759;51.982;9.232;2022-07-06T14:46:58;2.55;;;0.70;;
21202;SDS011;10759;51.982;9.232;2022-07-06T14:49:27;2.00;;;0.70;;
21202;SDS011;10759;51.982;9.232;2022-07-06T14:51:55;1.88;;;0.73;;
21202;SDS011;10759;51.982;9.232;2022-07-06T14:54:24;1.52;;;0.98;;
21202;SDS011;10759;51.982;9.232;2022-07-06T14:56:52;2.40;;;1.00;;
21202;SDS011;10759;51.982;9.232;2022-07-06T14:59:21;3.25;;;0.60;;
21202;SDS011;10759;51.982;9.232;2022-07-06T15:01:51;2.17;;;0.80;;
21202;SDS011;10759;51.982;9.232;2022-07-06T15:04:20;1.25;;;0.70;;
21202;SDS011;10759;51.982;9.232;2022-07-06T15:06:48;1.58;;;0.65;;
21202;SDS011;10759;51.982;9.232;2022-07-06T15:09:21;3.42;;;0.65;;
21202;SDS011;10759;51.982;9.232;2022-07-06T15:11:50;1.75;;;0.60;;
21202;SDS011;10759;51.982;9.232;2022-07-06T15:14:18;2.15;;;1.75;;
21202;SDS011;10759;51.982;9.232;2022-07-06T15:16:47;1.40;;;0.65;;
21202;SDS011;10759;51.982;9.232;2022-07-06T15:19:16;1.55;;;0.63;;
21202;SDS011;10759;51.982;9.232;2022-07-06T15:21:45;1.25;;;0.60;;
21202;SDS011;10759;51.982;9.232;2022-07-06T15:24:13;3.85;;;0.73;;
21202;SDS011;10759;51.982;9.232;2022-07-06T15:26:41;3.33;;;0.75;;
21202;SDS011;10759;51.982;9.232;2022-07-06T15:29:09;1.15;;;0.65;;
21202;SDS011;10759;51.982;9.232;2022-07-06T15:31:37;1.40;;;0.60;;
21202;SDS011;10759;51.982;9.232;2022-07-06T15:34:07;2.72;;;0.60;;
21202;SDS011;10759;51.982;9.232;2022-07-06T15:36:35;2.22;;;0.80;;
21202;SDS011;10759;51.982;9.232;2022-07-06T15:39:03;3.50;;;0.50;;
21202;SDS011;10759;51.982;9.232;2022-07-06T15:41:31;1.95;;;0.80;;
21202;SDS011;10759;51.982;9.232;2022-07-06T15:44:00;1.48;;;0.93;;
21202;SDS011;10759;51.982;9.232;2022-07-06T15:46:28;2.40;;;0.80;;
21202;SDS011;10759;51.982;9.232;2022-07-06T15:48:56;2.25;;;0.50;;
21202;SDS011;10759;51.982;9.232;2022-07-06T15:51:25;1.13;;;0.70;;
21202;SDS011;10759;51.982;9.232;2022-07-06T15:53:54;1.20;;;0.63;;
21202;SDS011;10759;51.982;9.232;2022-07-06T15:56:22;2.50;;;0.93;;
21202;SDS011;10759;51.982;9.232;2022-07-06T15:58:50;3.33;;;0.60;;
21202;SDS011;10759;51.982;9.232;2022-07-06T16:01:19;3.40;;;0.60;;
21202;SDS011;10759;51.982;9.232;2022-07-06T16:03:47;1.00;;;0.55;;
21202;SDS011;10759;51.982;9.232;2022-07-06T16:06:15;1.23;;;0.50;;
21202;SDS011;10759;51.982;9.232;2022-07-06T16:08:44;0.93;;;0.65;;
21202;SDS011;10759;51.982;9.232;2022-07-06T16:11:13;1.53;;;0.50;;
21202;SDS011;10759;51.982;9.232;2022-07-06T16:13:41;1.75;;;0.70;;
21202;SDS011;10759;51.982;9.232;2022-07-06T16:16:13;2.70;;;0.85;;
21202;SDS011;10759;51.982;9.232;2022-07-06T16:18:42;3.30;;;0.80;;
21202;SDS011;10759;51.982;9.232;2022-07-06T16:21:10;3.95;;;0.80;;
21202;SDS011;10759;51.982;9.232;2022-07-06T16:23:38;2.28;;;0.68;;
21202;SDS011;10759;51.982;9.232;2022-07-06T16:26:08;1.70;;;0.70;;
21202;SDS011;10759;51.982;9.232;2022-07-06T16:28:37;5.93;;;0.80;;
21202;SDS011;10759;51.982;9.232;2022-07-06T16:31:05;1.73;;;0.60;;
21202;SDS011;10759;51.982;9.232;2022-07-06T16:33:33;2.17;;;0.68;;
21202;SDS011;10759;51.982;9.232;2022-07-06T16:36:04;1.07;;;0.60;;
21202;SDS011;10759;51.982;9.232;2022-07-06T16:38:33;2.08;;;0.50;;
21202;SDS011;10759;51.982;9.232;2022-07-06T16:41:01;1.92;;;0.60;;
21202;SDS011;10759;51.982;9.232;2022-07-06T16:43:31;2.78;;;0.70;;
21202;SDS011;10759;51.982;9.232;2022-07-06T16:46:00;1.77;;;0.80;;
21202;SDS011;10759;51.982;9.232;2022-07-06T16:48:29;4.57;;;0.70;;
21202;SDS011;10759;51.982;9.232;2022-07-06T16:50:58;1.05;;;0.60;;
21202;SDS011;10759;51.982;9.232;2022-07-06T16:53:26;1.52;;;0.80;;
21202;SDS011;10759;51.982;9.232;2022-07-06T16:55:55;0.63;;;0.50;;
21202;SDS011;10759;51.982;9.232;2022-07-06T16:58:24;4.45;;;0.77;;
21202;SDS011;10759;51.982;9.232;2022-07-06T17:00:53;3.35;;;0.60;;
21202;SDS011;10759;51.982;9.232;2022-07-06T17:03:21;0.82;;;0.75;;
21202;SDS011;10759;51.982;9.232;2022-07-06T17:05:50;1.00;;;0.60;;
21202;SDS011;10759;51.982;9.232;2022-07-06T17:08:18;1.38;;;0.68;;
21202;SDS011;10759;51.982;9.232;2022-07-06T17:10:47;6.70;;;0.98;;
21202;SDS011;10759;51.982;9.232;2022-07-06T17:13:15;2.47;;;0.73;;
21202;SDS011;10759;51.982;9.232;2022-07-06T17:15:43;1.30;;;0.60;;
21202;SDS011;10759;51.982;9.232;2022-07-06T17:18:21;1.75;;;0.70;;
21202;SDS011;10759;51.982;9.232;2022-07-06T17:20:49;1.27;;;0.85;;
21202;SDS011;10759;51.982;9.232;2022-07-06T17:23:17;1.02;;;0.52;;
21202;SDS011;10759;51.982;9.232;2022-07-06T17:25:45;2.88;;;0.70;;
21202;SDS011;10759;51.982;9.232;2022-07-06T17:28:13;3.10;;;0.60;;
21202;SDS011;10759;51.982;9.232;2022-07-06T17:30:42;2.05;;;0.80;;
21202;SDS011;10759;51.982;9.232;2022-07-06T17:33:10;3.47;;;0.63;;
21202;SDS011;10759;51.982;9.232;2022-07-06T17:35:40;1.20;;;0.50;;
21202;SDS011;10759;51.982;9.232;2022-07-06T17:38:08;4.45;;;0.70;;
21202;SDS011;10759;51.982;9.232;2022-07-06T17:40:36;1.38;;;0.70;;
21202;SDS011;10759;51.982;9.232;2022-07-06T17:43:04;1.80;;;0.70;;
21202;SDS011;10759;51.982;9.232;2022-07-06T17:45:32;1.05;;;0.65;;
21202;SDS011;10759;51.982;9.232;2022-07-06T17:48:01;2.83;;;0.60;;
21202;SDS011;10759;51.982;9.232;2022-07-06T17:50:29;1.60;;;0.50;;
21202;SDS011;10759;51.982;9.232;2022-07-06T17:53:02;5.20;;;0.88;;
21202;SDS011;10759;51.982;9.232;2022-07-06T17:57:58;1.92;;;1.25;;
21202;SDS011;10759;51.982;9.232;2022-07-06T18:00:30;1.80;;;0.60;;
21202;SDS011;10759;51.982;9.232;2022-07-06T18:03:00;1.70;;;0.88;;
21202;SDS011;10759;51.982;9.232;2022-07-06T18:05:28;1.75;;;0.60;;
21202;SDS011;10759;51.982;9.232;2022-07-06T18:07:57;0.52;;;0.50;;
21202;SDS011;10759;51.982;9.232;2022-07-06T18:12:57;7.13;;;0.70;;
21202;SDS011;10759;51.982;9.232;2022-07-06T18:15:25;1.42;;;0.70;;
21202;SDS011;10759;51.982;9.232;2022-07-06T18:17:53;1.80;;;0.88;;
21202;SDS011;10759;51.982;9.232;2022-07-06T18:20:28;3.78;;;0.70;;
21202;SDS011;10759;51.982;9.232;2022-07-06T18:22:56;2.08;;;0.60;;
21202;SDS011;10759;51.982;9.232;2022-07-06T18:25:25;3.38;;;0.85;;
21202;SDS011;10759;51.982;9.232;2022-07-06T18:27:54;1.40;;;0.60;;
21202;SDS011;10759;51.982;9.232;2022-07-06T18:30:22;3.17;;;0.80;;
21202;SDS011;10759;51.982;9.232;2022-07-06T18:32:50;1.45;;;0.82;;
21202;SDS011;10759;51.982;9.232;2022-07-06T18:35:19;4.57;;;0.80;;
21202;SDS011;10759;51.982;9.232;2022-07-06T18:37:47;2.45;;;0.98;;
21202;SDS011;10759;51.982;9.232;2022-07-06T18:40:16;2.40;;;0.80;;
21202;SDS011;10759;51.982;9.232;2022-07-06T18:42:45;3.90;;;1.10;;
21202;SDS011;10759;51.982;9.232;2022-07-06T18:45:14;5.65;;;1.13;;
21202;SDS011;10759;51.982;9.232;2022-07-06T18:47:43;1.35;;;0.50;;
21202;SDS011;10759;51.982;9.232;2022-07-06T18:50:19;1.38;;;0.90;;
21202;SDS011;10759;51.982;9.232;2022-07-06T18:52:48;3.35;;;0.73;;
21202;SDS011;10759;51.982;9.232;2022-07-06T18:55:16;2.53;;;0.73;;
21202;SDS011;10759;51.982;9.232;2022-07-06T18:57:44;2.80;;;0.60;;
21202;SDS011;10759;51.982;9.232;2022-07-06T19:00:12;2.08;;;0.80;;
21202;SDS011;10759;51.982;9.232;2022-07-06T19:02:42;2.90;;;0.70;;
21202;SDS011;10759;51.982;9.232;2022-07-06T19:05:10;2.95;;;0.70;;
21202;SDS011;10759;51.982;9.232;2022-07-06T19:07:38;0.73;;;0.73;;
21202;SDS011;10759;51.982;9.232;2022-07-06T19:10:07;1.77;;;0.60;;
21202;SDS011;10759;51.982;9.232;2022-07-06T19:12:38;1.30;;;0.70;;
21202;SDS011;10759;51.982;9.232;2022-07-06T19:15:06;2.55;;;0.70;;
21202;SDS011;10759;51.982;9.232;2022-07-06T19:17:34;1.77;;;0.90;;
21202;SDS011;10759;51.982;9.232;2022-07-06T19:20:06;2.63;;;0.70;;
21202;SDS011;10759;51.982;9.232;2022-07-06T19:22:37;0.88;;;0.60;;
21202;SDS011;10759;51.982;9.232;2022-07-06T19:25:07;0.85;;;0.80;;
21202;SDS011;10759;51.982;9.232;2022-07-06T19:27:36;3.10;;;1.00;;
21202;SDS011;10759;51.982;9.232;2022-07-06T19:30:05;0.73;;;0.73;;
21202;SDS011;10759;51.982;9.232;2022-07-06T19:32:34;1.70;;;0.63;;
21202;SDS011;10759;51.982;9.232;2022-07-06T19:35:02;3.92;;;0.90;;
21202;SDS011;10759;51.982;9.232;2022-07-06T19:37:33;1.95;;;0.68;;
21202;SDS011;10759;51.982;9.232;2022-07-06T19:40:01;2.28;;;0.85;;
21202;SDS011;10759;51.982;9.232;2022-07-06T19:42:30;1.85;;;1.00;;
21202;SDS011;10759;51.982;9.232;2022-07-06T19:44:58;1.75;;;0.95;;
21202;SDS011;10759;51.982;9.232;2022-07-06T19:47:26;1.05;;;0.60;;
21202;SDS011;10759;51.982;9.232;2022-07-06T19:49:54;2.58;;;0.90;;
21202;SDS011;10759;51.982;9.232;2022-07-06T19:52:22;2.38;;;1.00;;
21202;SDS011;10759;51.982;9.232;2022-07-06T19:54:52;2.15;;;0.90;;
21202;SDS011;10759;51.982;9.232;2022-07-06T19:57:25;1.25;;;0.73;;
21202;SDS011;10759;51.982;9.232;2022-07-06T19:59:53;2.58;;;1.10;;
21202;SDS011;10759;51.982;9.232;2022-07-06T20:02:22;1.48;;;0.60;;
21202;SDS011;10759;51.982;9.232;2022-07-06T20:04:50;0.63;;;0.55;;
21202;SDS011;10759;51.982;9.232;2022-07-06T20:07:18;0.95;;;0.80;;
21202;SDS011;10759;51.982;9.232;2022-07-06T20:09:47;1.10;;;0.70;;
21202;SDS011;10759;51.982;9.232;2022-07-06T20:12:17;1.85;;;0.80;;
21202;SDS011;10759;51.982;9.232;2022-07-06T20:14:45;1.13;;;0.75;;
21202;SDS011;10759;51.982;9.232;2022-07-06T20:17:14;1.88;;;0.73;;
21202;SDS011;10759;51.982;9.232;2022-07-06T20:19:42;2.00;;;0.80;;
21202;SDS011;10759;51.982;9.232;2022-07-06T20:22:11;0.82;;;0.60;;
21202;SDS011;10759;51.982;9.232;2022-07-06T20:24:39;1.80;;;0.70;;
21202;SDS011;10759;51.982;9.232;2022-07-06T20:27:07;1.48;;;0.80;;
21202;SDS011;10759;51.982;9.232;2022-07-06T20:29:37;2.03;;;0.80;;
21202;SDS011;10759;51.982;9.232;2022-07-06T20:32:06;2.93;;;0.60;;
21202;SDS011;10759;51.982;9.232;2022-07-06T20:34:35;1.80;;;0.80;;
21202;SDS011;10759;51.982;9.232;2022-07-06T20:37:03;2.95;;;1.13;;
21202;SDS011;10759;51.982;9.232;2022-07-06T20:39:31;3.78;;;1.10;;
21202;SDS011;10759;51.982;9.232;2022-07-06T20:42:00;2.97;;;1.20;;
21202;SDS011;10759;51.982;9.232;2022-07-06T20:44:28;3.15;;;1.15;;
21202;SDS011;10759;51.982;9.232;2022-07-06T20:46:58;2.30;;;1.13;;
21202;SDS011;10759;51.982;9.232;2022-07-06T20:49:26;3.53;;;1.50;;
21202;SDS011;10759;51.982;9.232;2022-07-06T20:51:54;2.38;;;0.80;;
21202;SDS011;10759;51.982;9.232;2022-07-06T20:54:22;1.48;;;0.80;;
21202;SDS011;10759;51.982;9.232;2022-07-06T20:56:50;1.35;;;0.88;;
21202;SDS011;10759;51.982;9.232;2022-07-06T20:59:18;3.22;;;1.13;;